PWSweather.com
Personal Weather Stations
Station Observations
KILMORRI1
Goose Lake, Morris, IL 60450

Goose LakeMorris, IL 60450

Lat: 41.34, Lon: -88.3

Elevation: 523

Station Type:

www.gooselakeweather.com

High Low Average
Temperature 50.4°F10.2°C 33.6°F0.9°C 41.3°F5.2°C
Dew Point 48.7°F9.3°C 31.2°F-0.4°C 39.3°F4.1°C
Winds 19.6 mph 31.5 kmh Calm Calm 10.0 mph E16.1 kmh E
Wind Gusts 27.6 mph44.4 kmh -- 15.0 mph24.1 kmh
Humidity 94% 91% 93%
Pressure 29.98 in1015.2 mb 29.29 in991.9 mb -
Precipitation 1.15 in29.2 mm - -
Hour Temp Dew Point Humidity Winds Wind Gusts Pressure Precip Precip Rate Daily Precip Total
12:00 AM 35.3°F1.8°C 32.4°F0.2°C 89% 8.1 mph E13.0 kmh E 10.4 mph16.7 kmh 29.98 in1015.2 mb - 0.00 in0.0 mm 0.03 in0.8 mm
12:10 AM 35.1°F1.7°C 32.4°F0.2°C 90% 9.2 mph E14.8 kmh E 13.8 mph22.2 kmh 29.98 in1015.2 mb - 0.00 in0.0 mm 0.03 in0.8 mm
12:20 AM 34.8°F1.6°C 32.2°F0.1°C 90% 12.7 mph E20.4 kmh E 17.3 mph27.8 kmh 29.98 in1015.2 mb - 0.00 in0.0 mm 0.03 in0.8 mm
12:30 AM 34.4°F1.3°C 31.8°F-0.1°C 90% 12.7 mph E20.4 kmh E 18.4 mph29.6 kmh 29.98 in1015.2 mb - 0.00 in0.0 mm 0.03 in0.8 mm
12:40 AM 34.0°F1.1°C 31.4°F-0.3°C 90% 9.2 mph E14.8 kmh E 12.7 mph20.4 kmh 29.98 in1015.2 mb - 0.00 in0.0 mm 0.03 in0.8 mm
12:50 AM 33.7°F0.9°C 31.0°F-0.6°C 90% 9.2 mph E14.8 kmh E 13.8 mph22.2 kmh 29.97 in1014.9 mb - 0.00 in0.0 mm 0.03 in0.8 mm
01:00 AM 33.6°F0.9°C 31.3°F-0.4°C 91% 10.4 mph E16.7 kmh E 13.8 mph22.2 kmh 29.96 in1014.6 mb - 0.00 in0.0 mm 0.00 in0.0 mm
01:10 AM 33.6°F0.9°C 31.2°F-0.4°C 91% 11.5 mph E18.5 kmh E 13.8 mph22.2 kmh 29.97 in1014.9 mb - 0.00 in0.0 mm 0.00 in0.0 mm
01:20 AM 33.7°F0.9°C 31.4°F-0.3°C 91% 10.4 mph E16.7 kmh E 15.0 mph24.1 kmh 29.98 in1015.2 mb - 0.00 in0.0 mm 0.00 in0.0 mm
01:30 AM 33.9°F1.1°C 31.5°F-0.3°C 91% 8.1 mph E13.0 kmh E 11.5 mph18.5 kmh 29.97 in1014.9 mb - 0.00 in0.0 mm 0.00 in0.0 mm
01:40 AM 33.9°F1.1°C 31.6°F-0.2°C 91% 6.9 mph ENE11.1 kmh ENE 10.4 mph16.7 kmh 29.94 in1013.9 mb - 0.00 in0.0 mm 0.00 in0.0 mm
01:50 AM 34.1°F1.2°C 32.0°F0.0°C 92% 12.7 mph E20.4 kmh E 21.9 mph35.2 kmh 29.94 in1013.9 mb - 0.00 in0.0 mm 0.00 in0.0 mm
02:00 AM 34.2°F1.2°C 32.1°F0.1°C 92% 11.5 mph E18.5 kmh E 16.1 mph25.9 kmh 29.94 in1013.9 mb - 0.00 in0.0 mm 0.00 in0.0 mm
02:10 AM 34.3°F1.3°C 32.2°F0.1°C 92% 12.7 mph E20.4 kmh E 17.3 mph27.8 kmh 29.94 in1013.9 mb - 0.00 in0.0 mm 0.00 in0.0 mm
02:20 AM 34.2°F1.2°C 32.1°F0.1°C 92% 8.1 mph E13.0 kmh E 10.4 mph16.7 kmh 29.94 in1013.9 mb - 0.00 in0.0 mm 0.00 in0.0 mm
02:30 AM 34.1°F1.2°C 32.0°F0.0°C 92% 9.2 mph E14.8 kmh E 13.8 mph22.2 kmh 29.95 in1014.2 mb - 0.00 in0.0 mm 0.00 in0.0 mm
02:40 AM 34.1°F1.2°C 32.0°F0.0°C 92% 8.1 mph E13.0 kmh E 10.4 mph16.7 kmh 29.93 in1013.5 mb - 0.00 in0.0 mm 0.00 in0.0 mm
02:50 AM 34.2°F1.2°C 32.1°F0.1°C 92% 5.8 mph ENE9.3 kmh ENE 8.1 mph13.0 kmh 29.92 in1013.2 mb - 0.00 in0.0 mm 0.00 in0.0 mm
03:00 AM 34.2°F1.2°C 32.1°F0.1°C 92% 12.7 mph E20.4 kmh E 18.4 mph29.6 kmh 29.91 in1012.9 mb - 0.00 in0.0 mm 0.00 in0.0 mm
03:10 AM 34.4°F1.3°C 32.3°F0.2°C 92% 6.9 mph E11.1 kmh E 10.4 mph16.7 kmh 29.91 in1012.9 mb - 0.00 in0.0 mm 0.00 in0.0 mm
03:20 AM 34.6°F1.4°C 32.5°F0.3°C 92% 9.2 mph E14.8 kmh E 11.5 mph18.5 kmh 29.90 in1012.5 mb - 0.00 in0.0 mm 0.00 in0.0 mm
03:30 AM 34.6°F1.4°C 32.8°F0.4°C 93% 9.2 mph ENE14.8 kmh ENE 15.0 mph24.1 kmh 29.88 in1011.9 mb - 0.00 in0.0 mm 0.00 in0.0 mm
03:40 AM 34.4°F1.3°C 32.3°F0.2°C 92% 9.2 mph ENE14.8 kmh ENE 12.7 mph20.4 kmh 29.88 in1011.9 mb - 0.00 in0.0 mm 0.00 in0.0 mm
03:50 AM 34.5°F1.4°C 32.7°F0.4°C 93% 10.4 mph ENE16.7 kmh ENE 17.3 mph27.8 kmh 29.86 in1011.2 mb - 0.00 in0.0 mm 0.00 in0.0 mm
04:00 AM 34.3°F1.3°C 32.2°F0.1°C 92% 12.7 mph ENE20.4 kmh ENE 17.3 mph27.8 kmh 29.85 in1010.8 mb - 0.00 in0.0 mm 0.00 in0.0 mm
04:10 AM 34.3°F1.3°C 32.2°F0.1°C 92% 10.4 mph ENE16.7 kmh ENE 13.8 mph22.2 kmh 29.85 in1010.8 mb - 0.00 in0.0 mm 0.00 in0.0 mm
04:20 AM 34.6°F1.4°C 32.8°F0.4°C 93% 8.1 mph E13.0 kmh E 15.0 mph24.1 kmh 29.85 in1010.8 mb - 0.00 in0.0 mm 0.00 in0.0 mm
04:30 AM 34.6°F1.4°C 32.8°F0.4°C 93% 12.7 mph E20.4 kmh E 23.0 mph37.0 kmh 29.84 in1010.5 mb - 0.00 in0.0 mm 0.00 in0.0 mm
04:40 AM 34.4°F1.3°C 32.3°F0.2°C 92% 11.5 mph E18.5 kmh E 16.1 mph25.9 kmh 29.84 in1010.5 mb - 0.00 in0.0 mm 0.00 in0.0 mm
04:50 AM 34.5°F1.4°C 32.7°F0.4°C 93% 11.5 mph E18.5 kmh E 19.6 mph31.5 kmh 29.83 in1010.2 mb - 0.00 in0.0 mm 0.00 in0.0 mm
05:00 AM 34.5°F1.4°C 32.7°F0.4°C 93% 9.2 mph E14.8 kmh E 12.7 mph20.4 kmh 29.83 in1010.2 mb - 0.00 in0.0 mm 0.00 in0.0 mm
05:10 AM 34.3°F1.3°C 32.5°F0.3°C 93% 11.5 mph E18.5 kmh E 13.8 mph22.2 kmh 29.81 in1009.5 mb - 0.00 in0.0 mm 0.00 in0.0 mm
05:20 AM 34.5°F1.4°C 32.7°F0.4°C 93% 11.5 mph ENE18.5 kmh ENE 16.1 mph25.9 kmh 29.80 in1009.1 mb - 0.00 in0.0 mm 0.00 in0.0 mm
05:30 AM 35.0°F1.7°C 33.2°F0.7°C 93% 9.2 mph E14.8 kmh E 13.8 mph22.2 kmh 29.81 in1009.5 mb - 0.00 in0.0 mm 0.00 in0.0 mm
05:40 AM 34.7°F1.5°C 32.9°F0.5°C 93% 11.5 mph E18.5 kmh E 17.3 mph27.8 kmh 29.80 in1009.1 mb - 0.00 in0.0 mm 0.00 in0.0 mm
05:50 AM 34.6°F1.4°C 32.8°F0.4°C 93% 13.8 mph E22.2 kmh E 16.1 mph25.9 kmh 29.79 in1008.8 mb - 0.00 in0.0 mm 0.00 in0.0 mm
06:00 AM 34.7°F1.5°C 32.9°F0.5°C 93% 15.0 mph E24.1 kmh E 20.7 mph33.3 kmh 29.77 in1008.1 mb - 0.00 in0.0 mm 0.00 in0.0 mm
06:10 AM 35.2°F1.8°C 33.4°F0.8°C 93% 9.2 mph E14.8 kmh E 16.1 mph25.9 kmh 29.77 in1008.1 mb - 0.00 in0.0 mm 0.00 in0.0 mm
06:20 AM 35.1°F1.7°C 33.1°F0.6°C 92% 15.0 mph E24.1 kmh E 16.1 mph25.9 kmh 29.77 in1008.1 mb - 0.00 in0.0 mm 0.00 in0.0 mm
06:30 AM 35.3°F1.8°C 33.5°F0.8°C 93% 8.1 mph E13.0 kmh E 11.5 mph18.5 kmh 29.75 in1007.5 mb - 0.00 in0.0 mm 0.00 in0.0 mm
06:40 AM 35.6°F2.0°C 33.8°F1.0°C 93% 10.4 mph ENE16.7 kmh ENE 16.1 mph25.9 kmh 29.73 in1006.8 mb - 0.00 in0.0 mm 0.00 in0.0 mm
06:50 AM 35.6°F2.0°C 33.5°F0.8°C 92% 8.1 mph ENE13.0 kmh ENE 15.0 mph24.1 kmh 29.72 in1006.4 mb - 0.00 in0.0 mm 0.00 in0.0 mm
07:00 AM 35.6°F2.0°C 33.5°F0.8°C 92% 8.1 mph E13.0 kmh E 12.7 mph20.4 kmh 29.73 in1006.8 mb - 0.00 in0.0 mm 0.00 in0.0 mm
07:10 AM 35.9°F2.2°C 33.8°F1.0°C 92% 10.4 mph E16.7 kmh E 15.0 mph24.1 kmh 29.73 in1006.8 mb - 0.00 in0.0 mm 0.00 in0.0 mm
07:20 AM 35.9°F2.2°C 33.8°F1.0°C 92% 11.5 mph E18.5 kmh E 17.3 mph27.8 kmh 29.72 in1006.4 mb - 0.00 in0.0 mm 0.00 in0.0 mm
07:30 AM 35.9°F2.2°C 33.8°F1.0°C 92% 13.8 mph E22.2 kmh E 19.6 mph31.5 kmh 29.73 in1006.8 mb - 0.00 in0.0 mm 0.00 in0.0 mm
07:40 AM 35.7°F2.1°C 33.6°F0.9°C 92% 11.5 mph E18.5 kmh E 19.6 mph31.5 kmh 29.73 in1006.8 mb - 0.00 in0.0 mm 0.00 in0.0 mm
07:50 AM 35.7°F2.1°C 33.3°F0.7°C 91% 10.4 mph ENE16.7 kmh ENE 11.5 mph18.5 kmh 29.71 in1006.1 mb - 0.00 in0.0 mm 0.00 in0.0 mm
08:00 AM 35.8°F2.1°C 33.7°F0.9°C 92% 15.0 mph E24.1 kmh E 19.6 mph31.5 kmh 29.71 in1006.1 mb - 0.02 in0.5 mm 0.02 in0.5 mm
08:10 AM 35.9°F2.2°C 33.8°F1.0°C 92% 15.0 mph E24.1 kmh E 26.5 mph42.6 kmh 29.71 in1006.1 mb - 0.04 in1.0 mm 0.06 in1.5 mm
08:20 AM 36.1°F2.3°C 34.0°F1.1°C 92% 16.1 mph E25.9 kmh E 21.9 mph35.2 kmh 29.71 in1006.1 mb - 0.04 in1.0 mm 0.09 in2.3 mm
08:30 AM 36.1°F2.3°C 33.7°F0.9°C 91% 16.1 mph E25.9 kmh E 18.4 mph29.6 kmh 29.71 in1006.1 mb - 0.05 in1.3 mm 0.14 in3.6 mm
08:40 AM 36.3°F2.4°C 34.2°F1.2°C 92% 16.1 mph E25.9 kmh E 19.6 mph31.5 kmh 29.68 in1005.1 mb - 0.07 in1.8 mm 0.20 in5.1 mm
08:50 AM 36.8°F2.7°C 34.7°F1.5°C 92% 12.7 mph ENE20.4 kmh ENE 24.2 mph38.9 kmh 29.66 in1004.4 mb - 0.04 in1.0 mm 0.23 in5.8 mm
09:00 AM 37.0°F2.8°C 34.9°F1.6°C 92% 17.3 mph E27.8 kmh E 26.5 mph42.6 kmh 29.64 in1003.7 mb - 0.02 in0.5 mm 0.25 in6.4 mm
09:10 AM 37.2°F2.9°C 35.1°F1.7°C 92% 11.5 mph E18.5 kmh E 12.7 mph20.4 kmh 29.63 in1003.4 mb - 0.00 in0.0 mm 0.25 in6.4 mm
09:20 AM 37.6°F3.1°C 35.5°F1.9°C 92% 19.6 mph E31.5 kmh E 26.5 mph42.6 kmh 29.62 in1003.0 mb - 0.02 in0.5 mm 0.27 in6.9 mm
09:30 AM 37.1°F2.8°C 35.0°F1.7°C 92% 13.8 mph E22.2 kmh E 19.6 mph31.5 kmh 29.63 in1003.4 mb - 0.02 in0.5 mm 0.28 in7.1 mm
09:40 AM 37.2°F2.9°C 35.1°F1.7°C 92% 13.8 mph E22.2 kmh E 26.5 mph42.6 kmh 29.61 in1002.7 mb - 0.01 in0.3 mm 0.29 in7.4 mm
09:50 AM 37.6°F3.1°C 35.5°F1.9°C 92% 13.8 mph E22.2 kmh E 18.4 mph29.6 kmh 29.62 in1003.0 mb - 0.02 in0.5 mm 0.31 in7.9 mm
10:00 AM 37.7°F3.2°C 35.6°F2.0°C 92% 12.7 mph E20.4 kmh E 23.0 mph37.0 kmh 29.63 in1003.4 mb - 0.04 in1.0 mm 0.35 in8.9 mm
10:10 AM 38.2°F3.4°C 36.1°F2.3°C 92% 19.6 mph E31.5 kmh E 27.6 mph44.4 kmh 29.56 in1001.0 mb - 0.05 in1.3 mm 0.39 in9.9 mm
10:20 AM 38.4°F3.6°C 36.3°F2.4°C 92% 17.3 mph E27.8 kmh E 20.7 mph33.3 kmh 29.59 in1002.0 mb - 0.02 in0.5 mm 0.41 in10.4 mm
10:30 AM 38.5°F3.6°C 36.4°F2.4°C 92% 18.4 mph E29.6 kmh E 25.3 mph40.7 kmh 29.60 in1002.4 mb - 0.00 in0.0 mm 0.41 in10.4 mm
10:40 AM 38.4°F3.6°C 36.3°F2.4°C 92% 16.1 mph E25.9 kmh E 20.7 mph33.3 kmh 29.61 in1002.7 mb - 0.00 in0.0 mm 0.41 in10.4 mm
10:50 AM 38.6°F3.7°C 36.5°F2.5°C 92% 13.8 mph ENE22.2 kmh ENE 19.6 mph31.5 kmh 29.60 in1002.4 mb - 0.00 in0.0 mm 0.41 in10.4 mm
11:00 AM 38.8°F3.8°C 36.7°F2.6°C 92% 10.4 mph E16.7 kmh E 15.0 mph24.1 kmh 29.61 in1002.7 mb - 0.00 in0.0 mm 0.41 in10.4 mm
11:10 AM 39.1°F3.9°C 37.0°F2.8°C 92% 10.4 mph E16.7 kmh E 11.5 mph18.5 kmh 29.60 in1002.4 mb - 0.00 in0.0 mm 0.41 in10.4 mm
11:20 AM 39.3°F4.1°C 37.2°F2.9°C 92% 13.8 mph E22.2 kmh E 18.4 mph29.6 kmh 29.58 in1001.7 mb - 0.00 in0.0 mm 0.41 in10.4 mm
11:30 AM 39.8°F4.3°C 37.6°F3.1°C 92% 15.0 mph E24.1 kmh E 20.7 mph33.3 kmh 29.58 in1001.7 mb - 0.00 in0.0 mm 0.41 in10.4 mm
11:40 AM 40.1°F4.5°C 38.0°F3.3°C 92% 15.0 mph E24.1 kmh E 19.6 mph31.5 kmh 29.58 in1001.7 mb - 0.00 in0.0 mm 0.41 in10.4 mm
11:50 AM 40.3°F4.6°C 38.1°F3.4°C 92% 12.7 mph E20.4 kmh E 19.6 mph31.5 kmh 29.57 in1001.4 mb - 0.00 in0.0 mm 0.41 in10.4 mm
12:00 PM 40.5°F4.7°C 38.4°F3.6°C 92% 11.5 mph E18.5 kmh E 16.1 mph25.9 kmh 29.56 in1001.0 mb - 0.00 in0.0 mm 0.41 in10.4 mm
12:10 PM 40.8°F4.9°C 38.7°F3.7°C 92% 11.5 mph E18.5 kmh E 17.3 mph27.8 kmh 29.56 in1001.0 mb - 0.00 in0.0 mm 0.41 in10.4 mm
12:20 PM 41.1°F5.1°C 38.9°F3.8°C 92% 12.7 mph E20.4 kmh E 16.1 mph25.9 kmh 29.55 in1000.7 mb - 0.00 in0.0 mm 0.41 in10.4 mm
12:30 PM 41.3°F5.2°C 39.2°F4.0°C 92% 11.5 mph E18.5 kmh E 17.3 mph27.8 kmh 29.54 in1000.3 mb - 0.00 in0.0 mm 0.41 in10.4 mm
12:40 PM 41.6°F5.3°C 39.4°F4.1°C 92% 12.7 mph E20.4 kmh E 15.0 mph24.1 kmh 29.53 in1000.0 mb - 0.00 in0.0 mm 0.41 in10.4 mm
12:50 PM 41.9°F5.5°C 39.7°F4.3°C 92% 11.5 mph E18.5 kmh E 13.8 mph22.2 kmh 29.52 in999.7 mb - 0.00 in0.0 mm 0.41 in10.4 mm
01:00 PM 42.3°F5.7°C 40.2°F4.6°C 92% 13.8 mph E22.2 kmh E 20.7 mph33.3 kmh 29.52 in999.7 mb - 0.00 in0.0 mm 0.41 in10.4 mm
01:10 PM 42.8°F6.0°C 40.6°F4.8°C 92% 12.7 mph E20.4 kmh E 17.3 mph27.8 kmh 29.50 in999.0 mb - 0.00 in0.0 mm 0.41 in10.4 mm
01:20 PM 43.1°F6.2°C 40.9°F4.9°C 92% 15.0 mph E24.1 kmh E 17.3 mph27.8 kmh 29.49 in998.6 mb - 0.00 in0.0 mm 0.41 in10.4 mm
01:30 PM 43.3°F6.3°C 41.1°F5.1°C 92% 13.8 mph E22.2 kmh E 17.3 mph27.8 kmh 29.48 in998.3 mb - 0.00 in0.0 mm 0.41 in10.4 mm
01:40 PM 43.4°F6.3°C 41.2°F5.1°C 92% 10.4 mph E16.7 kmh E 15.0 mph24.1 kmh 29.48 in998.3 mb - 0.00 in0.0 mm 0.41 in10.4 mm
01:50 PM 43.5°F6.4°C 41.3°F5.2°C 92% 10.4 mph E16.7 kmh E 16.1 mph25.9 kmh 29.48 in998.3 mb - 0.00 in0.0 mm 0.41 in10.4 mm
02:00 PM 43.7°F6.5°C 41.5°F5.3°C 92% 11.5 mph E18.5 kmh E 13.8 mph22.2 kmh 29.46 in997.6 mb - 0.00 in0.0 mm 0.41 in10.4 mm
02:10 PM 43.8°F6.6°C 41.6°F5.3°C 92% 12.7 mph E20.4 kmh E 17.3 mph27.8 kmh 29.45 in997.3 mb - 0.00 in0.0 mm 0.41 in10.4 mm
02:20 PM 43.7°F6.5°C 41.5°F5.3°C 92% 12.7 mph E20.4 kmh E 19.6 mph31.5 kmh 29.45 in997.3 mb - 0.00 in0.0 mm 0.41 in10.4 mm
02:30 PM 43.7°F6.5°C 41.5°F5.3°C 92% 11.5 mph E18.5 kmh E 19.6 mph31.5 kmh 29.44 in997.0 mb - 0.00 in0.0 mm 0.41 in10.4 mm
02:40 PM 43.8°F6.6°C 41.6°F5.3°C 92% 17.3 mph E27.8 kmh E 20.7 mph33.3 kmh 29.44 in997.0 mb - 0.01 in0.3 mm 0.42 in10.7 mm
02:50 PM 43.7°F6.5°C 41.5°F5.3°C 92% 13.8 mph E22.2 kmh E 16.1 mph25.9 kmh 29.43 in996.6 mb - 0.02 in0.5 mm 0.44 in11.2 mm
03:00 PM 43.8°F6.6°C 41.6°F5.3°C 92% 13.8 mph E22.2 kmh E 19.6 mph31.5 kmh 29.43 in996.6 mb - 0.01 in0.3 mm 0.45 in11.4 mm
03:10 PM 44.0°F6.7°C 42.1°F5.6°C 93% 12.7 mph E20.4 kmh E 18.4 mph29.6 kmh 29.41 in995.9 mb - 0.00 in0.0 mm 0.45 in11.4 mm
03:20 PM 44.5°F6.9°C 42.3°F5.7°C 92% 12.7 mph E20.4 kmh E 18.4 mph29.6 kmh 29.41 in995.9 mb - 0.00 in0.0 mm 0.45 in11.4 mm
03:30 PM 44.5°F6.9°C 42.6°F5.9°C 93% 11.5 mph E18.5 kmh E 15.0 mph24.1 kmh 29.40 in995.6 mb - 0.00 in0.0 mm 0.45 in11.4 mm
03:40 PM 44.7°F7.1°C 42.8°F6.0°C 93% 15.0 mph E24.1 kmh E 17.3 mph27.8 kmh 29.41 in995.9 mb - 0.00 in0.0 mm 0.45 in11.4 mm
03:50 PM 45.0°F7.2°C 43.1°F6.2°C 93% 11.5 mph E18.5 kmh E 13.8 mph22.2 kmh 29.41 in995.9 mb - 0.00 in0.0 mm 0.45 in11.4 mm
04:00 PM 45.2°F7.3°C 43.3°F6.3°C 93% 12.7 mph E20.4 kmh E 18.4 mph29.6 kmh 29.40 in995.6 mb - 0.00 in0.0 mm 0.45 in11.4 mm
04:10 PM 45.0°F7.2°C 43.1°F6.2°C 93% 10.4 mph E16.7 kmh E 15.0 mph24.1 kmh 29.40 in995.6 mb - 0.00 in0.0 mm 0.45 in11.4 mm
04:20 PM 44.8°F7.1°C 42.9°F6.1°C 93% 10.4 mph E16.7 kmh E 18.4 mph29.6 kmh 29.40 in995.6 mb - 0.00 in0.0 mm 0.45 in11.4 mm
04:30 PM 44.7°F7.1°C 42.8°F6.0°C 93% 11.5 mph E18.5 kmh E 13.8 mph22.2 kmh 29.39 in995.3 mb - 0.00 in0.0 mm 0.45 in11.4 mm
04:40 PM 44.8°F7.1°C 42.9°F6.1°C 93% 12.7 mph E20.4 kmh E 19.6 mph31.5 kmh 29.38 in994.9 mb - 0.00 in0.0 mm 0.45 in11.4 mm
04:50 PM 45.0°F7.2°C 43.1°F6.2°C 93% 11.5 mph E18.5 kmh E 17.3 mph27.8 kmh 29.38 in994.9 mb - 0.00 in0.0 mm 0.45 in11.4 mm
05:00 PM 45.2°F7.3°C 43.3°F6.3°C 93% 11.5 mph E18.5 kmh E 18.4 mph29.6 kmh 29.37 in994.6 mb - 0.00 in0.0 mm 0.45 in11.4 mm
05:10 PM 45.1°F7.3°C 43.2°F6.2°C 93% 10.4 mph E16.7 kmh E 15.0 mph24.1 kmh 29.37 in994.6 mb - 0.00 in0.0 mm 0.45 in11.4 mm
05:20 PM 44.9°F7.2°C 43.0°F6.1°C 93% 11.5 mph E18.5 kmh E 17.3 mph27.8 kmh 29.37 in994.6 mb - 0.00 in0.0 mm 0.45 in11.4 mm
05:30 PM 44.8°F7.1°C 42.9°F6.1°C 93% 8.1 mph E13.0 kmh E 15.0 mph24.1 kmh 29.37 in994.6 mb - 0.00 in0.0 mm 0.45 in11.4 mm
05:40 PM 44.9°F7.2°C 43.0°F6.1°C 93% 11.5 mph E18.5 kmh E 18.4 mph29.6 kmh 29.36 in994.2 mb - 0.00 in0.0 mm 0.45 in11.4 mm
05:50 PM 44.9°F7.2°C 43.0°F6.1°C 93% 12.7 mph E20.4 kmh E 23.0 mph37.0 kmh 29.35 in993.9 mb - 0.00 in0.0 mm 0.45 in11.4 mm
06:00 PM 44.9°F7.2°C 43.0°F6.1°C 93% 13.8 mph E22.2 kmh E 13.8 mph22.2 kmh 29.34 in993.6 mb - 0.00 in0.0 mm 0.45 in11.4 mm
06:10 PM 45.1°F7.3°C 43.2°F6.2°C 93% 12.7 mph E20.4 kmh E 17.3 mph27.8 kmh 29.34 in993.6 mb - 0.00 in0.0 mm 0.45 in11.4 mm
06:20 PM 45.2°F7.3°C 43.3°F6.3°C 93% 8.1 mph E13.0 kmh E 11.5 mph18.5 kmh 29.35 in993.9 mb - 0.00 in0.0 mm 0.45 in11.4 mm
06:30 PM 45.4°F7.4°C 43.5°F6.4°C 93% 6.9 mph E11.1 kmh E 15.0 mph24.1 kmh 29.36 in994.2 mb - 0.00 in0.0 mm 0.45 in11.4 mm
06:40 PM 45.5°F7.5°C 43.6°F6.4°C 93% 8.1 mph E13.0 kmh E 11.5 mph18.5 kmh 29.36 in994.2 mb - 0.00 in0.0 mm 0.45 in11.4 mm
06:50 PM 45.6°F7.6°C 43.7°F6.5°C 93% 9.2 mph E14.8 kmh E 13.8 mph22.2 kmh 29.36 in994.2 mb - 0.00 in0.0 mm 0.45 in11.4 mm
07:00 PM 45.7°F7.6°C 43.8°F6.6°C 93% 8.1 mph E13.0 kmh E 13.8 mph22.2 kmh 29.35 in993.9 mb - 0.00 in0.0 mm 0.45 in11.4 mm
07:10 PM 45.8°F7.7°C 43.9°F6.6°C 93% 11.5 mph E18.5 kmh E 16.1 mph25.9 kmh 29.34 in993.6 mb - 0.00 in0.0 mm 0.45 in11.4 mm
07:20 PM 45.9°F7.7°C 44.0°F6.7°C 93% 10.4 mph E16.7 kmh E 15.0 mph24.1 kmh 29.34 in993.6 mb - 0.00 in0.0 mm 0.45 in11.4 mm
07:30 PM 46.0°F7.8°C 44.1°F6.7°C 93% 9.2 mph E14.8 kmh E 15.0 mph24.1 kmh 29.33 in993.2 mb - 0.00 in0.0 mm 0.45 in11.4 mm
07:40 PM 46.2°F7.9°C 44.6°F7.0°C 94% 8.1 mph E13.0 kmh E 13.8 mph22.2 kmh 29.33 in993.2 mb - 0.00 in0.0 mm 0.45 in11.4 mm
07:50 PM 46.4°F8.0°C 44.8°F7.1°C 94% 9.2 mph E14.8 kmh E 13.8 mph22.2 kmh 29.33 in993.2 mb - 0.00 in0.0 mm 0.45 in11.4 mm
08:00 PM 46.7°F8.2°C 45.1°F7.3°C 94% 10.4 mph E16.7 kmh E 13.8 mph22.2 kmh 29.33 in993.2 mb - 0.00 in0.0 mm 0.45 in11.4 mm
08:10 PM 47.0°F8.3°C 45.4°F7.4°C 94% 9.2 mph ESE14.8 kmh ESE 15.0 mph24.1 kmh 29.32 in992.9 mb - 0.00 in0.0 mm 0.45 in11.4 mm
08:20 PM 47.1°F8.4°C 45.5°F7.5°C 94% 11.5 mph E18.5 kmh E 12.7 mph20.4 kmh 29.31 in992.6 mb - 0.00 in0.0 mm 0.45 in11.4 mm
08:30 PM 46.9°F8.3°C 45.3°F7.4°C 94% 9.2 mph E14.8 kmh E 16.1 mph25.9 kmh 29.31 in992.6 mb - 0.00 in0.0 mm 0.45 in11.4 mm
08:40 PM 46.9°F8.3°C 45.2°F7.3°C 94% 8.1 mph E13.0 kmh E 11.5 mph18.5 kmh 29.30 in992.2 mb - 0.00 in0.0 mm 0.45 in11.4 mm
08:50 PM 47.4°F8.6°C 45.8°F7.7°C 94% 9.2 mph E14.8 kmh E 12.7 mph20.4 kmh 29.30 in992.2 mb - 0.00 in0.0 mm 0.45 in11.4 mm
09:00 PM 47.8°F8.8°C 46.2°F7.9°C 94% 9.2 mph E14.8 kmh E 12.7 mph20.4 kmh 29.29 in991.9 mb - 0.00 in0.0 mm 0.45 in11.4 mm
09:10 PM 48.3°F9.1°C 46.7°F8.2°C 94% 8.1 mph E13.0 kmh E 13.8 mph22.2 kmh 29.29 in991.9 mb - 0.00 in0.0 mm 0.45 in11.4 mm
09:20 PM 48.8°F9.3°C 47.2°F8.4°C 94% 6.9 mph E11.1 kmh E 11.5 mph18.5 kmh 29.29 in991.9 mb - 0.00 in0.0 mm 0.45 in11.4 mm
09:30 PM 49.7°F9.8°C 48.0°F8.9°C 94% 1.2 mph ESE1.9 kmh ESE 2.3 mph3.7 kmh 29.30 in992.2 mb - 0.04 in1.0 mm 0.49 in12.4 mm
09:40 PM 50.3°F10.2°C 48.6°F9.2°C 94% 4.6 mph NW7.4 kmh NW 5.8 mph9.3 kmh 29.31 in992.6 mb - 0.05 in1.3 mm 0.54 in13.7 mm
09:50 PM 50.2°F10.1°C 48.5°F9.2°C 94% 2.3 mph NW3.7 kmh NW 3.5 mph5.6 kmh 29.31 in992.6 mb - 0.23 in5.8 mm 0.76 in19.3 mm
10:00 PM 50.2°F10.1°C 48.5°F9.2°C 94% 1.2 mph WSW1.9 kmh WSW 3.5 mph5.6 kmh 29.31 in992.6 mb - 0.10 in2.5 mm 0.85 in21.6 mm
10:10 PM 50.1°F10.1°C 48.4°F9.1°C 94% 1.2 mph SW1.9 kmh SW 2.3 mph3.7 kmh 29.31 in992.6 mb - 0.09 in2.3 mm 0.94 in23.9 mm
10:20 PM 50.2°F10.1°C 48.6°F9.2°C 94% 3.5 mph SSW5.6 kmh SSW 8.1 mph13.0 kmh 29.33 in993.2 mb - 0.05 in1.3 mm 0.98 in24.9 mm
10:30 PM 50.4°F10.2°C 48.7°F9.3°C 94% 1.2 mph S1.9 kmh S 2.3 mph3.7 kmh 29.33 in993.2 mb - 0.05 in1.3 mm 1.03 in26.2 mm
10:40 PM 49.8°F9.9°C 47.9°F8.8°C 93% 1.2 mph S1.9 kmh S 1.2 mph1.9 kmh 29.32 in992.9 mb - 0.05 in1.3 mm 1.07 in27.2 mm
10:50 PM 49.3°F9.6°C 47.6°F8.7°C 94% 2.3 mph E3.7 kmh E 2.3 mph3.7 kmh 29.31 in992.6 mb - 0.05 in1.3 mm 1.12 in28.4 mm
11:00 PM 49.3°F9.6°C 47.6°F8.7°C 94% 1.2 mph NE1.9 kmh NE 2.3 mph3.7 kmh 29.30 in992.2 mb - 0.03 in0.8 mm 1.14 in29.0 mm
11:10 PM 48.7°F9.3°C 47.1°F8.4°C 94% 1.2 mph ESE1.9 kmh ESE 2.3 mph3.7 kmh 29.30 in992.2 mb - 0.00 in0.0 mm 1.14 in29.0 mm
11:20 PM 48.7°F9.3°C 47.1°F8.4°C 94% Calm Calm -- 29.30 in992.2 mb - 0.00 in0.0 mm 1.14 in29.0 mm
11:30 PM 48.4°F9.1°C 46.8°F8.2°C 94% 1.2 mph ESE1.9 kmh ESE 1.2 mph1.9 kmh 29.30 in992.2 mb - 0.00 in0.0 mm 1.14 in29.0 mm
11:40 PM 48.2°F9.0°C 46.6°F8.1°C 94% Calm Calm -- 29.31 in992.6 mb - 0.00 in0.0 mm 1.14 in29.0 mm
11:50 PM 48.1°F8.9°C 46.5°F8.1°C 94% 2.3 mph S3.7 kmh S 3.5 mph5.6 kmh 29.32 in992.9 mb - 0.00 in0.0 mm 1.14 in29.0 mm